Main page
METAR-TAF:

METAR-TAF

Airports :

Sheremetyevo International Airport

Moscow-Sheremetyevo, Russia

latitude: 55-58N, longitude: 037-25E, elevation: 190 m

Current weather observation

The report was made 18 minutes ago, at 21:00 UTC
Wind 8 kt from the North
Temperature 9°C
Humidity 71%
Pressure 1024 hPa
Visibility 10 km or more
no clouds below 1500 m and no cumulonimbus

METAR: UUEE 202100Z 01004MPS CAVOK 09/04 Q1024 R06R/150062 NOSIG

Time: 00:18 (21:18 UTC)

Forecast

The report was made 1 hour and 28 minutes ago, at 19:50 UTC
Forecast valid from 20 at 21 UTC to 21 at 21 UTC
Wind 6 kt from the North
Visibility: 6000 m
Scattered clouds at a height of 3000 ft

TAF: UUEE 201950Z 2021/2121 01003MPS 6000 SCT030 TX18/2112Z TN07/2103Z

Weather observations and forecasts of more than 4000 airports (METAR and TAF reports).

The available stations are represented by yellow and red dots on the map.

Hover mouse over dot to see the name of the station.

Then click to see weather observations and forecasts.

To change the map : click on the green buttons with a black cross to zoom in, on the green button with a dash to zoom out, or on the green arrows for adjacent maps.


METAR-TAF: